sensor_id;sensor_type;location;lat;lon;timestamp;pressure;altitude;pressure_sealevel;temperature;humidity
65131;BME280;51709;54.912;8.316;2024-01-06T00:01:56;100753.28;;;0.12;85.09
65131;BME280;51709;54.912;8.316;2024-01-06T00:07:17;100765.69;;;0.13;85.02
65131;BME280;51709;54.912;8.316;2024-01-06T00:12:38;100754.84;;;0.16;84.96
65131;BME280;51709;54.912;8.316;2024-01-06T00:17:58;100764.34;;;0.20;84.87
65131;BME280;51709;54.912;8.316;2024-01-06T00:23:19;100769.59;;;0.22;84.99
65131;BME280;51709;54.912;8.316;2024-01-06T00:28:39;100778.28;;;0.25;84.89
65131;BME280;51709;54.912;8.316;2024-01-06T00:33:59;100777.13;;;0.29;84.86
65131;BME280;51709;54.912;8.316;2024-01-06T00:39:20;100784.09;;;0.32;84.69
65131;BME280;51709;54.912;8.316;2024-01-06T00:44:41;100781.34;;;0.33;84.79
65131;BME280;51709;54.912;8.316;2024-01-06T00:50:01;100791.06;;;0.34;84.84
65131;BME280;51709;54.912;8.316;2024-01-06T00:55:22;100803.25;;;0.38;84.79
65131;BME280;51709;54.912;8.316;2024-01-06T01:00:43;100812.03;;;0.40;84.83
65131;BME280;51709;54.912;8.316;2024-01-06T01:06:04;100820.06;;;0.40;84.74
65131;BME280;51709;54.912;8.316;2024-01-06T01:11:25;100824.63;;;0.38;84.69
65131;BME280;51709;54.912;8.316;2024-01-06T01:16:46;100830.19;;;0.35;84.79
65131;BME280;51709;54.912;8.316;2024-01-06T01:22:06;100833.06;;;0.32;84.82
65131;BME280;51709;54.912;8.316;2024-01-06T01:27:27;100844.50;;;0.34;84.87
65131;BME280;51709;54.912;8.316;2024-01-06T01:32:48;100845.63;;;0.30;84.58
65131;BME280;51709;54.912;8.316;2024-01-06T01:38:08;100851.16;;;0.27;84.89
65131;BME280;51709;54.912;8.316;2024-01-06T01:43:29;100853.81;;;0.27;84.86
65131;BME280;51709;54.912;8.316;2024-01-06T01:48:50;100852.09;;;0.26;84.88
65131;BME280;51709;54.912;8.316;2024-01-06T01:54:11;100861.09;;;0.25;84.86
65131;BME280;51709;54.912;8.316;2024-01-06T01:59:33;100868.13;;;0.26;84.71
65131;BME280;51709;54.912;8.316;2024-01-06T02:04:55;100871.00;;;0.23;84.49
65131;BME280;51709;54.912;8.316;2024-01-06T02:10:19;100885.19;;;0.24;84.67
65131;BME280;51709;54.912;8.316;2024-01-06T02:15:40;100885.50;;;0.19;84.61
65131;BME280;51709;54.912;8.316;2024-01-06T02:21:02;100892.72;;;0.17;84.60
65131;BME280;51709;54.912;8.316;2024-01-06T02:26:23;100899.09;;;0.15;84.57
65131;BME280;51709;54.912;8.316;2024-01-06T02:31:43;100896.44;;;0.15;84.49
65131;BME280;51709;54.912;8.316;2024-01-06T02:37:04;100895.50;;;0.16;84.44
65131;BME280;51709;54.912;8.316;2024-01-06T02:42:25;100892.81;;;0.16;84.52
65131;BME280;51709;54.912;8.316;2024-01-06T02:47:46;100900.75;;;0.17;84.50
65131;BME280;51709;54.912;8.316;2024-01-06T02:53:07;100894.38;;;0.20;84.56
65131;BME280;51709;54.912;8.316;2024-01-06T02:58:27;100900.38;;;0.23;84.59
65131;BME280;51709;54.912;8.316;2024-01-06T03:03:48;100906.41;;;0.27;84.45
65131;BME280;51709;54.912;8.316;2024-01-06T03:09:08;100914.31;;;0.28;84.76
65131;BME280;51709;54.912;8.316;2024-01-06T03:14:29;100929.88;;;0.36;84.50
65131;BME280;51709;54.912;8.316;2024-01-06T03:19:49;100926.00;;;0.41;84.68
65131;BME280;51709;54.912;8.316;2024-01-06T03:25:10;100935.34;;;0.48;84.97
65131;BME280;51709;54.912;8.316;2024-01-06T03:30:31;100938.69;;;0.52;84.74
65131;BME280;51709;54.912;8.316;2024-01-06T03:35:52;100964.34;;;0.54;84.50
65131;BME280;51709;54.912;8.316;2024-01-06T03:41:13;100953.50;;;0.57;84.41
65131;BME280;51709;54.912;8.316;2024-01-06T03:46:35;100957.78;;;0.60;84.37
65131;BME280;51709;54.912;8.316;2024-01-06T03:51:55;100969.25;;;0.62;84.38
65131;BME280;51709;54.912;8.316;2024-01-06T03:57:16;100963.78;;;0.63;84.43
65131;BME280;51709;54.912;8.316;2024-01-06T04:02:37;100979.66;;;0.66;84.26
65131;BME280;51709;54.912;8.316;2024-01-06T04:07:57;100985.78;;;0.68;84.37
65131;BME280;51709;54.912;8.316;2024-01-06T04:13:18;100994.47;;;0.72;84.26
65131;BME280;51709;54.912;8.316;2024-01-06T04:18:38;101005.06;;;0.73;84.31
65131;BME280;51709;54.912;8.316;2024-01-06T04:23:59;101004.97;;;0.75;84.13
65131;BME280;51709;54.912;8.316;2024-01-06T04:29:20;101006.78;;;0.74;84.30
65131;BME280;51709;54.912;8.316;2024-01-06T04:34:41;101009.44;;;0.74;84.23
65131;BME280;51709;54.912;8.316;2024-01-06T04:40:02;101012.91;;;0.76;84.30
65131;BME280;51709;54.912;8.316;2024-01-06T04:45:24;101014.69;;;0.76;84.18
65131;BME280;51709;54.912;8.316;2024-01-06T04:50:45;101019.94;;;0.77;84.17
65131;BME280;51709;54.912;8.316;2024-01-06T04:56:05;101017.13;;;0.80;84.14
65131;BME280;51709;54.912;8.316;2024-01-06T05:01:25;101030.47;;;0.80;84.08
65131;BME280;51709;54.912;8.316;2024-01-06T05:06:46;101040.03;;;0.84;84.14
65131;BME280;51709;54.912;8.316;2024-01-06T05:12:07;101031.06;;;0.85;84.04
65131;BME280;51709;54.912;8.316;2024-01-06T05:17:27;101043.56;;;0.85;84.06
65131;BME280;51709;54.912;8.316;2024-01-06T05:22:48;101046.13;;;0.86;84.25
65131;BME280;51709;54.912;8.316;2024-01-06T05:28:08;101054.94;;;0.88;84.20
65131;BME280;51709;54.912;8.316;2024-01-06T05:33:29;101061.25;;;0.87;84.18
65131;BME280;51709;54.912;8.316;2024-01-06T05:38:49;101060.28;;;0.88;84.23
65131;BME280;51709;54.912;8.316;2024-01-06T05:44:12;101085.31;;;0.87;84.25
65131;BME280;51709;54.912;8.316;2024-01-06T05:49:33;101099.59;;;0.86;84.08
65131;BME280;51709;54.912;8.316;2024-01-06T05:54:53;101109.19;;;0.90;84.24
65131;BME280;51709;54.912;8.316;2024-01-06T06:00:14;101117.03;;;0.93;84.04
65131;BME280;51709;54.912;8.316;2024-01-06T06:05:35;101134.03;;;0.92;84.16
65131;BME280;51709;54.912;8.316;2024-01-06T06:10:56;101135.81;;;0.92;84.12
65131;BME280;51709;54.912;8.316;2024-01-06T06:16:23;101135.81;;;0.92;84.00
65131;BME280;51709;54.912;8.316;2024-01-06T06:21:44;101157.91;;;0.95;84.09
65131;BME280;51709;54.912;8.316;2024-01-06T06:27:06;101173.09;;;0.95;84.38
65131;BME280;51709;54.912;8.316;2024-01-06T06:32:27;101202.31;;;0.98;84.27
65131;BME280;51709;54.912;8.316;2024-01-06T06:37:48;101189.72;;;1.00;84.20
65131;BME280;51709;54.912;8.316;2024-01-06T06:43:09;101201.38;;;0.99;84.23
65131;BME280;51709;54.912;8.316;2024-01-06T06:48:30;101210.16;;;1.01;84.20
65131;BME280;51709;54.912;8.316;2024-01-06T06:53:50;101207.34;;;1.04;84.40
65131;BME280;51709;54.912;8.316;2024-01-06T06:59:11;101215.34;;;1.04;84.33
65131;BME280;51709;54.912;8.316;2024-01-06T07:04:31;101229.50;;;1.06;84.34
65131;BME280;51709;54.912;8.316;2024-01-06T07:09:52;101228.63;;;1.05;84.23
65131;BME280;51709;54.912;8.316;2024-01-06T07:15:12;101232.00;;;1.09;84.24
65131;BME280;51709;54.912;8.316;2024-01-06T07:20:33;101242.41;;;1.14;84.06
65131;BME280;51709;54.912;8.316;2024-01-06T07:25:55;101253.09;;;1.14;84.00
65131;BME280;51709;54.912;8.316;2024-01-06T07:31:16;101251.22;;;1.16;83.97
65131;BME280;51709;54.912;8.316;2024-01-06T07:36:37;101258.13;;;1.20;84.17
65131;BME280;51709;54.912;8.316;2024-01-06T07:41:58;101258.78;;;1.23;84.09
65131;BME280;51709;54.912;8.316;2024-01-06T07:47:19;101271.97;;;1.26;84.00
65131;BME280;51709;54.912;8.316;2024-01-06T07:52:39;101276.41;;;1.27;83.88
65131;BME280;51709;54.912;8.316;2024-01-06T07:58:00;101302.88;;;1.32;83.90
65131;BME280;51709;54.912;8.316;2024-01-06T08:03:20;101303.50;;;1.37;84.04
65131;BME280;51709;54.912;8.316;2024-01-06T08:08:41;101321.28;;;1.38;83.97
65131;BME280;51709;54.912;8.316;2024-01-06T08:14:01;101336.22;;;1.42;83.81
65131;BME280;51709;54.912;8.316;2024-01-06T08:19:21;101336.22;;;1.42;83.74
65131;BME280;51709;54.912;8.316;2024-01-06T08:24:42;101334.91;;;1.49;84.10
65131;BME280;51709;54.912;8.316;2024-01-06T08:30:03;101344.38;;;1.54;84.21
65131;BME280;51709;54.912;8.316;2024-01-06T08:35:24;101353.09;;;1.58;84.09
65131;BME280;51709;54.912;8.316;2024-01-06T08:40:45;101354.66;;;1.62;84.00
65131;BME280;51709;54.912;8.316;2024-01-06T08:46:08;101365.94;;;1.67;83.81
65131;BME280;51709;54.912;8.316;2024-01-06T08:51:29;101373.81;;;1.70;83.68
65131;BME280;51709;54.912;8.316;2024-01-06T08:56:51;101397.66;;;1.74;83.68
65131;BME280;51709;54.912;8.316;2024-01-06T09:02:11;101394.69;;;1.79;83.72
65131;BME280;51709;54.912;8.316;2024-01-06T09:07:33;101400.91;;;1.79;83.70
65131;BME280;51709;54.912;8.316;2024-01-06T09:12:53;101406.19;;;1.81;83.61
65131;BME280;51709;54.912;8.316;2024-01-06T09:18:14;101414.03;;;1.84;83.54
65131;BME280;51709;54.912;8.316;2024-01-06T09:23:35;101416.53;;;1.87;83.57
65131;BME280;51709;54.912;8.316;2024-01-06T09:28:55;101422.59;;;1.90;83.46
65131;BME280;51709;54.912;8.316;2024-01-06T09:34:16;101426.88;;;1.93;83.51
65131;BME280;51709;54.912;8.316;2024-01-06T09:39:37;101439.06;;;1.98;83.64
65131;BME280;51709;54.912;8.316;2024-01-06T09:45:00;101460.38;;;2.00;83.46
65131;BME280;51709;54.912;8.316;2024-01-06T09:50:21;101454.88;;;2.03;83.63
65131;BME280;51709;54.912;8.316;2024-01-06T09:55:42;101453.03;;;2.03;83.42
65131;BME280;51709;54.912;8.316;2024-01-06T10:01:03;101468.09;;;2.06;83.43
65131;BME280;51709;54.912;8.316;2024-01-06T10:06:25;101479.78;;;2.05;83.48
65131;BME280;51709;54.912;8.316;2024-01-06T10:11:45;101473.34;;;2.07;83.32
65131;BME280;51709;54.912;8.316;2024-01-06T10:17:06;101485.97;;;2.05;83.54
65131;BME280;51709;54.912;8.316;2024-01-06T10:22:28;101491.22;;;2.07;83.42
65131;BME280;51709;54.912;8.316;2024-01-06T10:27:49;101498.44;;;2.06;83.68
65131;BME280;51709;54.912;8.316;2024-01-06T10:33:09;101505.50;;;2.07;83.66
65131;BME280;51709;54.912;8.316;2024-01-06T10:38:30;101498.16;;;2.11;83.39
65131;BME280;51709;54.912;8.316;2024-01-06T10:43:51;101504.09;;;2.16;83.36
65131;BME280;51709;54.912;8.316;2024-01-06T10:49:12;101504.78;;;2.20;83.34
65131;BME280;51709;54.912;8.316;2024-01-06T10:54:35;101508.34;;;2.20;83.27
65131;BME280;51709;54.912;8.316;2024-01-06T10:59:58;101505.66;;;2.20;83.34
65131;BME280;51709;54.912;8.316;2024-01-06T11:05:19;101514.66;;;2.19;83.53
65131;BME280;51709;54.912;8.316;2024-01-06T11:10:41;101524.50;;;2.19;83.40
65131;BME280;51709;54.912;8.316;2024-01-06T11:16:02;101536.25;;;2.16;83.58
65131;BME280;51709;54.912;8.316;2024-01-06T11:21:26;101525.72;;;2.13;83.64
65131;BME280;51709;54.912;8.316;2024-01-06T11:26:52;101531.28;;;2.10;83.57
65131;BME280;51709;54.912;8.316;2024-01-06T11:32:20;101529.19;;;2.15;83.54
65131;BME280;51709;54.912;8.316;2024-01-06T11:43:10;101545.25;;;2.15;83.65
65131;BME280;51709;54.912;8.316;2024-01-06T11:48:33;101544.13;;;2.19;83.62
65131;BME280;51709;54.912;8.316;2024-01-06T11:53:54;101540.78;;;2.16;83.58
65131;BME280;51709;54.912;8.316;2024-01-06T11:59:15;101548.38;;;2.07;83.73
65131;BME280;51709;54.912;8.316;2024-01-06T12:04:35;101562.63;;;2.08;83.81
65131;BME280;51709;54.912;8.316;2024-01-06T12:10:20;101554.59;;;2.08;83.74
65131;BME280;51709;54.912;8.316;2024-01-06T12:15:40;101567.03;;;2.09;83.88
65131;BME280;51709;54.912;8.316;2024-01-06T12:21:01;101561.75;;;2.07;84.00
65131;BME280;51709;54.912;8.316;2024-01-06T12:26:23;101569.63;;;2.10;84.08
65131;BME280;51709;54.912;8.316;2024-01-06T12:31:44;101565.13;;;2.11;83.91
65131;BME280;51709;54.912;8.316;2024-01-06T12:37:05;101570.78;;;2.06;84.02
65131;BME280;51709;54.912;8.316;2024-01-06T12:42:26;101576.22;;;2.05;83.99
65131;BME280;51709;54.912;8.316;2024-01-06T12:47:47;101584.41;;;2.02;83.98
65131;BME280;51709;54.912;8.316;2024-01-06T12:53:08;101578.97;;;2.19;83.94
65131;BME280;51709;54.912;8.316;2024-01-06T12:58:29;101582.75;;;2.46;83.51
65131;BME280;51709;54.912;8.316;2024-01-06T13:03:49;101581.38;;;2.39;83.70
65131;BME280;51709;54.912;8.316;2024-01-06T13:09:10;101605.06;;;2.31;83.80
65131;BME280;51709;54.912;8.316;2024-01-06T13:14:36;101609.25;;;2.21;83.71
65131;BME280;51709;54.912;8.316;2024-01-06T13:19:58;101621.94;;;2.18;83.99
65131;BME280;51709;54.912;8.316;2024-01-06T13:25:18;101628.25;;;2.17;83.93
65131;BME280;51709;54.912;8.316;2024-01-06T13:30:40;101627.56;;;2.13;84.56
65131;BME280;51709;54.912;8.316;2024-01-06T13:36:02;101638.28;;;2.13;84.42
65131;BME280;51709;54.912;8.316;2024-01-06T13:41:22;101651.94;;;2.08;84.29
65131;BME280;51709;54.912;8.316;2024-01-06T13:46:43;101662.72;;;2.07;83.85
65131;BME280;51709;54.912;8.316;2024-01-06T13:52:08;101651.56;;;1.99;84.15
65131;BME280;51709;54.912;8.316;2024-01-06T13:57:29;101675.06;;;1.94;84.07
65131;BME280;51709;54.912;8.316;2024-01-06T14:02:50;101675.41;;;1.88;84.16
65131;BME280;51709;54.912;8.316;2024-01-06T14:08:11;101685.31;;;1.86;84.30
65131;BME280;51709;54.912;8.316;2024-01-06T14:13:31;101690.06;;;1.81;84.16
65131;BME280;51709;54.912;8.316;2024-01-06T14:18:53;101705.34;;;1.79;84.23
65131;BME280;51709;54.912;8.316;2024-01-06T14:24:16;101712.78;;;1.74;84.33
65131;BME280;51709;54.912;8.316;2024-01-06T14:29:43;101723.00;;;1.66;84.28
65131;BME280;51709;54.912;8.316;2024-01-06T14:35:05;101727.91;;;1.58;84.31
65131;BME280;51709;54.912;8.316;2024-01-06T14:40:32;101739.72;;;1.54;84.29
65131;BME280;51709;54.912;8.316;2024-01-06T14:45:52;101738.47;;;1.44;84.53
65131;BME280;51709;54.912;8.316;2024-01-06T14:51:13;101740.50;;;1.39;84.46
65131;BME280;51709;54.912;8.316;2024-01-06T14:56:37;101749.06;;;1.28;84.49
65131;BME280;51709;54.912;8.316;2024-01-06T15:01:58;101751.41;;;1.17;84.58
65131;BME280;51709;54.912;8.316;2024-01-06T15:07:19;101763.44;;;1.08;84.85
65131;BME280;51709;54.912;8.316;2024-01-06T15:12:39;101760.44;;;0.97;84.82
65131;BME280;51709;54.912;8.316;2024-01-06T15:18:00;101779.56;;;0.90;84.84
65131;BME280;51709;54.912;8.316;2024-01-06T15:23:21;101785.03;;;0.87;85.01
65131;BME280;51709;54.912;8.316;2024-01-06T15:28:42;101798.72;;;0.81;84.87
65131;BME280;51709;54.912;8.316;2024-01-06T15:34:02;101801.44;;;0.79;84.85
65131;BME280;51709;54.912;8.316;2024-01-06T15:39:23;101814.09;;;0.76;84.95
65131;BME280;51709;54.912;8.316;2024-01-06T15:44:44;101820.59;;;0.70;84.97
65131;BME280;51709;54.912;8.316;2024-01-06T15:50:06;101834.13;;;0.67;84.95
65131;BME280;51709;54.912;8.316;2024-01-06T15:55:28;101846.03;;;0.60;85.05
65131;BME280;51709;54.912;8.316;2024-01-06T16:00:48;101859.56;;;0.57;85.06
65131;BME280;51709;54.912;8.316;2024-01-06T16:06:09;101860.63;;;0.53;85.06
65131;BME280;51709;54.912;8.316;2024-01-06T16:11:30;101869.78;;;0.48;85.12
65131;BME280;51709;54.912;8.316;2024-01-06T16:16:50;101870.78;;;0.45;84.96
65131;BME280;51709;54.912;8.316;2024-01-06T16:22:11;101878.94;;;0.42;85.13
65131;BME280;51709;54.912;8.316;2024-01-06T16:27:37;101876.34;;;0.41;84.99
65131;BME280;51709;54.912;8.316;2024-01-06T16:32:58;101877.34;;;0.38;85.02
65131;BME280;51709;54.912;8.316;2024-01-06T16:38:21;101887.19;;;0.38;84.96
65131;BME280;51709;54.912;8.316;2024-01-06T16:43:42;101891.66;;;0.37;84.90
65131;BME280;51709;54.912;8.316;2024-01-06T16:49:02;101894.50;;;0.33;84.85
65131;BME280;51709;54.912;8.316;2024-01-06T16:54:23;101905.25;;;0.31;84.87
65131;BME280;51709;54.912;8.316;2024-01-06T16:59:43;101908.16;;;0.27;84.74
65131;BME280;51709;54.912;8.316;2024-01-06T17:05:04;101930.44;;;0.26;84.78
65131;BME280;51709;54.912;8.316;2024-01-06T17:10:25;101935.78;;;0.26;84.78
65131;BME280;51709;54.912;8.316;2024-01-06T17:15:46;101939.41;;;0.25;84.82
65131;BME280;51709;54.912;8.316;2024-01-06T17:21:06;101945.75;;;0.22;84.81
65131;BME280;51709;54.912;8.316;2024-01-06T17:26:27;101952.13;;;0.18;84.72
65131;BME280;51709;54.912;8.316;2024-01-06T17:31:47;101946.03;;;0.16;84.52
65131;BME280;51709;54.912;8.316;2024-01-06T17:37:08;101966.69;;;0.11;84.61
65131;BME280;51709;54.912;8.316;2024-01-06T17:42:29;101989.16;;;0.07;84.61
65131;BME280;51709;54.912;8.316;2024-01-06T17:47:50;101978.72;;;0.01;84.60
65131;BME280;51709;54.912;8.316;2024-01-06T17:53:11;101992.31;;;-0.05;84.62
65131;BME280;51709;54.912;8.316;2024-01-06T17:58:31;101996.84;;;-0.07;84.54
65131;BME280;51709;54.912;8.316;2024-01-06T18:03:52;102003.28;;;-0.13;84.70
65131;BME280;51709;54.912;8.316;2024-01-06T18:09:13;102009.81;;;-0.20;84.44
65131;BME280;51709;54.912;8.316;2024-01-06T18:14:38;102015.34;;;-0.24;84.55
65131;BME280;51709;54.912;8.316;2024-01-06T18:19:59;102030.69;;;-0.29;84.50
65131;BME280;51709;54.912;8.316;2024-01-06T18:25:20;102028.13;;;-0.32;84.35
65131;BME280;51709;54.912;8.316;2024-01-06T18:30:40;102022.91;;;-0.35;84.62
65131;BME280;51709;54.912;8.316;2024-01-06T18:36:01;102029.97;;;-0.34;84.93
65131;BME280;51709;54.912;8.316;2024-01-06T18:41:22;102035.31;;;-0.34;84.80
65131;BME280;51709;54.912;8.316;2024-01-06T18:46:43;102029.38;;;-0.41;84.65
65131;BME280;51709;54.912;8.316;2024-01-06T18:52:03;102035.81;;;-0.46;84.50
65131;BME280;51709;54.912;8.316;2024-01-06T18:57:24;102043.13;;;-0.51;84.55
65131;BME280;51709;54.912;8.316;2024-01-06T19:02:45;102047.66;;;-0.53;84.37
65131;BME280;51709;54.912;8.316;2024-01-06T19:08:10;102059.34;;;-0.57;84.53
65131;BME280;51709;54.912;8.316;2024-01-06T19:13:31;102053.19;;;-0.59;84.43
65131;BME280;51709;54.912;8.316;2024-01-06T19:18:52;102063.94;;;-0.61;84.58
65131;BME280;51709;54.912;8.316;2024-01-06T19:24:12;102061.47;;;-0.65;84.43
65131;BME280;51709;54.912;8.316;2024-01-06T19:29:46;102067.00;;;-0.71;84.64
65131;BME280;51709;54.912;8.316;2024-01-06T19:35:08;102068.03;;;-0.74;84.59
65131;BME280;51709;54.912;8.316;2024-01-06T19:40:28;102075.16;;;-0.74;84.46
65131;BME280;51709;54.912;8.316;2024-01-06T19:45:51;102084.13;;;-0.77;84.46
65131;BME280;51709;54.912;8.316;2024-01-06T19:51:12;102086.97;;;-0.81;84.53
65131;BME280;51709;54.912;8.316;2024-01-06T19:56:35;102103.06;;;-0.84;84.60
65131;BME280;51709;54.912;8.316;2024-01-06T20:01:56;102105.03;;;-0.89;84.38
65131;BME280;51709;54.912;8.316;2024-01-06T20:07:17;102113.28;;;-0.95;84.37
65131;BME280;51709;54.912;8.316;2024-01-06T20:12:38;102116.78;;;-0.95;84.27
65131;BME280;51709;54.912;8.316;2024-01-06T20:17:59;102132.03;;;-0.98;84.50
65131;BME280;51709;54.912;8.316;2024-01-06T20:23:20;102135.63;;;-0.99;84.53
65131;BME280;51709;54.912;8.316;2024-01-06T20:28:40;102143.69;;;-1.01;84.63
65131;BME280;51709;54.912;8.316;2024-01-06T20:34:01;102146.28;;;-0.99;84.45
65131;BME280;51709;54.912;8.316;2024-01-06T20:39:22;102143.72;;;-1.02;84.33
65131;BME280;51709;54.912;8.316;2024-01-06T20:44:43;102156.13;;;-1.01;84.39
65131;BME280;51709;54.912;8.316;2024-01-06T20:50:06;102157.91;;;-1.02;84.20
65131;BME280;51709;54.912;8.316;2024-01-06T20:55:26;102157.91;;;-1.02;84.23
65131;BME280;51709;54.912;8.316;2024-01-06T21:00:47;102153.47;;;-1.01;84.27
65131;BME280;51709;54.912;8.316;2024-01-06T21:06:09;102156.97;;;-0.99;84.26
65131;BME280;51709;54.912;8.316;2024-01-06T21:11:30;102155.94;;;-0.95;84.34
65131;BME280;51709;54.912;8.316;2024-01-06T21:16:51;102160.16;;;-0.90;84.36
65131;BME280;51709;54.912;8.316;2024-01-06T21:22:12;102174.28;;;-0.86;84.37
65131;BME280;51709;54.912;8.316;2024-01-06T21:27:33;102179.50;;;-0.83;84.34
65131;BME280;51709;54.912;8.316;2024-01-06T21:32:56;102194.34;;;-0.76;84.33
65131;BME280;51709;54.912;8.316;2024-01-06T21:38:21;102193.22;;;-0.69;84.05
65131;BME280;51709;54.912;8.316;2024-01-06T21:43:42;102207.50;;;-0.70;84.04
65131;BME280;51709;54.912;8.316;2024-01-06T21:49:02;102203.94;;;-0.71;84.05
65131;BME280;51709;54.912;8.316;2024-01-06T21:54:24;102212.09;;;-0.75;84.15
65131;BME280;51709;54.912;8.316;2024-01-06T21:59:44;102223.69;;;-0.76;84.17
65131;BME280;51709;54.912;8.316;2024-01-06T22:05:05;102222.56;;;-0.69;84.07
65131;BME280;51709;54.912;8.316;2024-01-06T22:10:26;102221.41;;;-0.62;83.87
65131;BME280;51709;54.912;8.316;2024-01-06T22:15:53;102223.97;;;-0.59;83.88
65131;BME280;51709;54.912;8.316;2024-01-06T22:21:14;102226.56;;;-0.56;83.86
65131;BME280;51709;54.912;8.316;2024-01-06T22:26:37;102236.22;;;-0.54;83.78
65131;BME280;51709;54.912;8.316;2024-01-06T22:31:58;102228.19;;;-0.52;83.73
65131;BME280;51709;54.912;8.316;2024-01-06T22:37:18;102249.75;;;-0.58;83.71
65131;BME280;51709;54.912;8.316;2024-01-06T22:42:40;102257.88;;;-0.63;83.70
65131;BME280;51709;54.912;8.316;2024-01-06T22:48:01;102266.94;;;-0.67;83.54
65131;BME280;51709;54.912;8.316;2024-01-06T22:53:21;102267.09;;;-0.71;83.50
65131;BME280;51709;54.912;8.316;2024-01-06T22:58:42;102277.81;;;-0.73;83.54
65131;BME280;51709;54.912;8.316;2024-01-06T23:04:03;102286.84;;;-0.77;83.60
65131;BME280;51709;54.912;8.316;2024-01-06T23:09:24;102291.50;;;-0.83;83.69
65131;BME280;51709;54.912;8.316;2024-01-06T23:14:44;102292.66;;;-0.90;83.84
65131;BME280;51709;54.912;8.316;2024-01-06T23:20:05;102296.50;;;-1.00;83.87
65131;BME280;51709;54.912;8.316;2024-01-06T23:25:26;102305.56;;;-1.06;83.76
65131;BME280;51709;54.912;8.316;2024-01-06T23:30:47;102314.56;;;-1.09;83.84
65131;BME280;51709;54.912;8.316;2024-01-06T23:36:08;102327.94;;;-1.10;84.27
65131;BME280;51709;54.912;8.316;2024-01-06T23:41:29;102326.25;;;-1.13;84.29
65131;BME280;51709;54.912;8.316;2024-01-06T23:46:49;102338.78;;;-1.16;84.32
65131;BME280;51709;54.912;8.316;2024-01-06T23:52:10;102334.56;;;-1.23;84.26
65131;BME280;51709;54.912;8.316;2024-01-06T23:57:31;102350.69;;;-1.28;84.06
